sensor_id;sensor_type;location;lat;lon;timestamp;pressure;altitude;pressure_sealevel;temperature;humidity
62710;BME280;48770;51.624;5.886;2023-06-22T00:00:53;101745.31;;;27.68;37.97
62710;BME280;48770;51.624;5.886;2023-06-22T00:03:20;101742.50;;;27.68;38.33
62710;BME280;48770;51.624;5.886;2023-06-22T00:05:47;101743.69;;;27.67;38.40
62710;BME280;48770;51.624;5.886;2023-06-22T00:08:12;101740.06;;;27.66;38.17
62710;BME280;48770;51.624;5.886;2023-06-22T00:10:38;101734.03;;;27.64;38.29
62710;BME280;48770;51.624;5.886;2023-06-22T00:13:04;101730.41;;;27.63;38.38
62710;BME280;48770;51.624;5.886;2023-06-22T00:15:29;101736.03;;;27.63;37.98
62710;BME280;48770;51.624;5.886;2023-06-22T00:17:54;101740.84;;;27.63;38.02
62710;BME280;48770;51.624;5.886;2023-06-22T00:20:20;101748.44;;;27.62;38.22
62710;BME280;48770;51.624;5.886;2023-06-22T00:22:45;101748.78;;;27.61;38.53
62710;BME280;48770;51.624;5.886;2023-06-22T00:25:11;101742.38;;;27.60;38.41
62710;BME280;48770;51.624;5.886;2023-06-22T00:27:37;101744.38;;;27.60;38.66
62710;BME280;48770;51.624;5.886;2023-06-22T00:30:03;101742.75;;;27.59;38.66
62710;BME280;48770;51.624;5.886;2023-06-22T00:32:28;101748.72;;;27.57;38.64
62710;BME280;48770;51.624;5.886;2023-06-22T00:34:54;101746.28;;;27.56;39.01
62710;BME280;48770;51.624;5.886;2023-06-22T00:37:19;101735.81;;;27.53;38.86
62710;BME280;48770;51.624;5.886;2023-06-22T00:39:48;101741.03;;;27.54;39.02
62710;BME280;48770;51.624;5.886;2023-06-22T00:42:13;101745.44;;;27.52;39.07
62710;BME280;48770;51.624;5.886;2023-06-22T00:44:38;101738.19;;;27.51;39.37
62710;BME280;48770;51.624;5.886;2023-06-22T00:47:04;101743.81;;;27.51;39.47
62710;BME280;48770;51.624;5.886;2023-06-22T00:49:30;101742.19;;;27.50;39.04
62710;BME280;48770;51.624;5.886;2023-06-22T00:51:57;101736.94;;;27.48;39.31
62710;BME280;48770;51.624;5.886;2023-06-22T00:54:22;101736.13;;;27.48;39.26
62710;BME280;48770;51.624;5.886;2023-06-22T00:56:53;101730.91;;;27.46;39.19
62710;BME280;48770;51.624;5.886;2023-06-22T00:59:21;101740.50;;;27.45;39.67
62710;BME280;48770;51.624;5.886;2023-06-22T01:01:46;101726.84;;;27.44;39.47
62710;BME280;48770;51.624;5.886;2023-06-22T01:04:12;101726.84;;;27.44;39.19
62710;BME280;48770;51.624;5.886;2023-06-22T01:07:01;101733.22;;;27.41;39.46
62710;BME280;48770;51.624;5.886;2023-06-22T01:09:32;101723.97;;;27.40;39.65
62710;BME280;48770;51.624;5.886;2023-06-22T01:12:02;101726.78;;;27.40;39.64
62710;BME280;48770;51.624;5.886;2023-06-22T01:14:40;101724.34;;;27.39;39.81
62710;BME280;48770;51.624;5.886;2023-06-22T01:17:08;101729.97;;;27.39;39.63
62710;BME280;48770;51.624;5.886;2023-06-22T01:19:46;101722.75;;;27.38;39.64
62710;BME280;48770;51.624;5.886;2023-06-22T01:22:16;101720.31;;;27.36;39.65
62710;BME280;48770;51.624;5.886;2023-06-22T01:25:19;101727.50;;;27.33;39.87
62710;BME280;48770;51.624;5.886;2023-06-22T01:30:22;101719.75;;;27.27;39.89
62710;BME280;48770;51.624;5.886;2023-06-22T01:32:50;101725.72;;;27.25;40.00
62710;BME280;48770;51.624;5.886;2023-06-22T01:35:17;101722.50;;;27.23;40.25
62710;BME280;48770;51.624;5.886;2023-06-22T01:37:44;101714.44;;;27.22;39.90
62710;BME280;48770;51.624;5.886;2023-06-22T01:40:10;101717.63;;;27.20;40.21
62710;BME280;48770;51.624;5.886;2023-06-22T01:42:36;101708.78;;;27.18;39.82
62710;BME280;48770;51.624;5.886;2023-06-22T01:45:03;101713.94;;;27.16;40.34
62710;BME280;48770;51.624;5.886;2023-06-22T01:47:28;101707.91;;;27.14;40.31
62710;BME280;48770;51.624;5.886;2023-06-22T01:49:54;101709.47;;;27.12;40.17
62710;BME280;48770;51.624;5.886;2023-06-22T01:52:20;101703.03;;;27.11;40.31
62710;BME280;48770;51.624;5.886;2023-06-22T01:54:48;101704.59;;;27.09;40.53
62710;BME280;48770;51.624;5.886;2023-06-22T01:57:14;101703.00;;;27.08;40.39
62710;BME280;48770;51.624;5.886;2023-06-22T02:00:02;101704.53;;;27.05;40.47
62710;BME280;48770;51.624;5.886;2023-06-22T02:02:32;101699.66;;;27.02;40.36
62710;BME280;48770;51.624;5.886;2023-06-22T02:05:07;101702.84;;;27.00;40.59
62710;BME280;48770;51.624;5.886;2023-06-22T02:07:41;101713.25;;;27.00;40.66
62710;BME280;48770;51.624;5.886;2023-06-22T02:10:09;101717.25;;;26.99;40.92
62710;BME280;48770;51.624;5.886;2023-06-22T02:12:37;101715.59;;;26.98;40.74
62710;BME280;48770;51.624;5.886;2023-06-22T02:15:04;101713.97;;;26.97;40.63
62710;BME280;48770;51.624;5.886;2023-06-22T02:17:30;101705.94;;;26.95;40.81
62710;BME280;48770;51.624;5.886;2023-06-22T02:19:58;101707.50;;;26.93;40.79
62710;BME280;48770;51.624;5.886;2023-06-22T02:22:23;101702.25;;;26.91;40.85
62710;BME280;48770;51.624;5.886;2023-06-22T02:24:49;101694.22;;;26.90;40.60
62710;BME280;48770;51.624;5.886;2023-06-22T02:27:14;101693.41;;;26.89;41.16
62710;BME280;48770;51.624;5.886;2023-06-22T02:29:39;101696.59;;;26.88;41.03
62710;BME280;48770;51.624;5.886;2023-06-22T02:32:05;101696.16;;;26.86;41.03
62710;BME280;48770;51.624;5.886;2023-06-22T02:34:31;101689.72;;;26.85;40.89
62710;BME280;48770;51.624;5.886;2023-06-22T02:36:58;101682.50;;;26.84;41.01
62710;BME280;48770;51.624;5.886;2023-06-22T02:39:26;101687.28;;;26.84;40.79
62710;BME280;48770;51.624;5.886;2023-06-22T02:41:53;101676.06;;;26.84;40.91
62710;BME280;48770;51.624;5.886;2023-06-22T02:44:20;101675.63;;;26.82;40.84
62710;BME280;48770;51.624;5.886;2023-06-22T02:46:47;101682.44;;;26.81;41.09
62710;BME280;48770;51.624;5.886;2023-06-22T02:49:12;101668.75;;;26.79;41.08
62710;BME280;48770;51.624;5.886;2023-06-22T02:51:44;101671.94;;;26.78;41.05
62710;BME280;48770;51.624;5.886;2023-06-22T02:54:10;101675.94;;;26.77;41.35
62710;BME280;48770;51.624;5.886;2023-06-22T02:56:35;101672.69;;;26.74;41.22
62710;BME280;48770;51.624;5.886;2023-06-22T02:59:02;101672.69;;;26.74;40.92
62710;BME280;48770;51.624;5.886;2023-06-22T03:01:28;101673.06;;;26.73;41.30
62710;BME280;48770;51.624;5.886;2023-06-22T03:03:55;101679.03;;;26.71;41.06
62710;BME280;48770;51.624;5.886;2023-06-22T03:06:21;101675.44;;;26.71;41.18
62710;BME280;48770;51.624;5.886;2023-06-22T03:08:59;101678.16;;;26.67;41.43
62710;BME280;48770;51.624;5.886;2023-06-22T03:11:24;101671.75;;;26.67;41.07
62710;BME280;48770;51.624;5.886;2023-06-22T03:13:50;101665.34;;;26.66;41.45
62710;BME280;48770;51.624;5.886;2023-06-22T03:16:17;101662.09;;;26.64;41.11
62710;BME280;48770;51.624;5.886;2023-06-22T03:18:42;101660.09;;;26.65;41.16
62710;BME280;48770;51.624;5.886;2023-06-22T03:21:08;101653.22;;;26.62;41.09
62710;BME280;48770;51.624;5.886;2023-06-22T03:23:33;101650.44;;;26.62;41.28
62710;BME280;48770;51.624;5.886;2023-06-22T03:25:58;101648.81;;;26.61;41.23
62710;BME280;48770;51.624;5.886;2023-06-22T03:28:24;101647.19;;;26.60;41.23
62710;BME280;48770;51.624;5.886;2023-06-22T03:30:49;101650.38;;;26.59;41.27
62710;BME280;48770;51.624;5.886;2023-06-22T03:33:14;101651.56;;;26.58;41.17
62710;BME280;48770;51.624;5.886;2023-06-22T03:35:39;101654.72;;;26.56;41.16
62710;BME280;48770;51.624;5.886;2023-06-22T03:38:05;101647.50;;;26.55;41.36
62710;BME280;48770;51.624;5.886;2023-06-22T03:40:30;101648.66;;;26.54;41.36
62710;BME280;48770;51.624;5.886;2023-06-22T03:42:55;101649.84;;;26.53;41.46
62710;BME280;48770;51.624;5.886;2023-06-22T03:45:21;101654.66;;;26.53;40.88
62710;BME280;48770;51.624;5.886;2023-06-22T03:47:46;101648.22;;;26.52;41.31
62710;BME280;48770;51.624;5.886;2023-06-22T03:50:11;101641.00;;;26.51;41.08
62710;BME280;48770;51.624;5.886;2023-06-22T03:52:37;101642.53;;;26.49;41.21
62710;BME280;48770;51.624;5.886;2023-06-22T03:55:02;101638.94;;;26.48;41.12
62710;BME280;48770;51.624;5.886;2023-06-22T03:57:28;101640.13;;;26.47;41.45
62710;BME280;48770;51.624;5.886;2023-06-22T03:59:56;101637.31;;;26.47;41.28
62710;BME280;48770;51.624;5.886;2023-06-22T04:02:22;101644.09;;;26.46;41.30
62710;BME280;48770;51.624;5.886;2023-06-22T04:04:47;101638.88;;;26.45;41.56
62710;BME280;48770;51.624;5.886;2023-06-22T04:07:12;101635.25;;;26.44;41.63
62710;BME280;48770;51.624;5.886;2023-06-22T04:09:38;101642.88;;;26.43;41.87
62710;BME280;48770;51.624;5.886;2023-06-22T04:12:03;101633.63;;;26.43;41.74
62710;BME280;48770;51.624;5.886;2023-06-22T04:14:29;101624.41;;;26.42;41.61
62710;BME280;48770;51.624;5.886;2023-06-22T04:16:54;101638.44;;;26.42;41.76
62710;BME280;48770;51.624;5.886;2023-06-22T04:19:19;101633.19;;;26.41;41.93
62710;BME280;48770;51.624;5.886;2023-06-22T04:21:45;101634.38;;;26.40;41.79
62710;BME280;48770;51.624;5.886;2023-06-22T04:24:11;101634.38;;;26.40;41.59
62710;BME280;48770;51.624;5.886;2023-06-22T04:26:37;101640.00;;;26.40;41.88
62710;BME280;48770;51.624;5.886;2023-06-22T04:29:03;101632.75;;;26.39;41.64
62710;BME280;48770;51.624;5.886;2023-06-22T04:31:34;101632.75;;;26.39;42.06
62710;BME280;48770;51.624;5.886;2023-06-22T04:34:02;101623.16;;;26.40;41.93
62710;BME280;48770;51.624;5.886;2023-06-22T04:36:41;101629.16;;;26.38;42.02
62710;BME280;48770;51.624;5.886;2023-06-22T04:39:10;101630.34;;;26.37;42.12
62710;BME280;48770;51.624;5.886;2023-06-22T04:41:36;101620.31;;;26.36;42.16
62710;BME280;48770;51.624;5.886;2023-06-22T04:46:34;101625.09;;;26.36;42.29
62710;BME280;48770;51.624;5.886;2023-06-22T04:49:09;101625.09;;;26.36;42.06
62710;BME280;48770;51.624;5.886;2023-06-22T04:51:41;101621.47;;;26.35;42.59
62710;BME280;48770;51.624;5.886;2023-06-22T04:54:08;101620.66;;;26.35;42.66
62710;BME280;48770;51.624;5.886;2023-06-22T04:56:34;101629.09;;;26.35;42.69
62710;BME280;48770;51.624;5.886;2023-06-22T04:59:00;101632.69;;;26.35;42.71
62710;BME280;48770;51.624;5.886;2023-06-22T05:01:26;101633.50;;;26.36;42.68
62710;BME280;48770;51.624;5.886;2023-06-22T05:03:51;101634.31;;;26.36;42.81
62710;BME280;48770;51.624;5.886;2023-06-22T05:06:24;101636.75;;;26.38;42.92
62710;BME280;48770;51.624;5.886;2023-06-22T05:08:52;101631.94;;;26.38;42.66
62710;BME280;48770;51.624;5.886;2023-06-22T05:11:18;101634.75;;;26.38;42.80
62710;BME280;48770;51.624;5.886;2023-06-22T05:13:43;101632.75;;;26.39;43.11
62710;BME280;48770;51.624;5.886;2023-06-22T05:16:09;101627.97;;;26.39;42.90
62710;BME280;48770;51.624;5.886;2023-06-22T05:18:34;101624.34;;;26.39;42.98
62710;BME280;48770;51.624;5.886;2023-06-22T05:21:00;101626.78;;;26.40;42.88
62710;BME280;48770;51.624;5.886;2023-06-22T05:23:25;101630.41;;;26.41;43.23
62710;BME280;48770;51.624;5.886;2023-06-22T05:25:51;101632.03;;;26.42;43.16
62710;BME280;48770;51.624;5.886;2023-06-22T05:28:16;101638.44;;;26.42;43.18
62710;BME280;48770;51.624;5.886;2023-06-22T05:30:41;101634.00;;;26.41;43.43
62710;BME280;48770;51.624;5.886;2023-06-22T05:33:07;101638.44;;;26.42;43.11
62710;BME280;48770;51.624;5.886;2023-06-22T05:35:32;101639.25;;;26.43;43.33
62710;BME280;48770;51.624;5.886;2023-06-22T05:37:57;101642.88;;;26.43;43.52
62710;BME280;48770;51.624;5.886;2023-06-22T05:40:23;101634.44;;;26.43;43.58
62710;BME280;48770;51.624;5.886;2023-06-22T05:42:48;101642.50;;;26.45;43.71
62710;BME280;48770;51.624;5.886;2023-06-22T05:45:13;101637.69;;;26.46;43.72
62710;BME280;48770;51.624;5.886;2023-06-22T05:47:38;101638.50;;;26.46;43.67
62710;BME280;48770;51.624;5.886;2023-06-22T05:50:05;101634.13;;;26.49;43.55
62710;BME280;48770;51.624;5.886;2023-06-22T05:52:33;101638.56;;;26.50;43.37
62710;BME280;48770;51.624;5.886;2023-06-22T05:54:58;101630.59;;;26.52;43.90
62710;BME280;48770;51.624;5.886;2023-06-22T05:57:24;101637.81;;;26.53;43.89
62710;BME280;48770;51.624;5.886;2023-06-22T05:59:49;101638.63;;;26.53;43.59
62710;BME280;48770;51.624;5.886;2023-06-22T06:02:14;101636.28;;;26.55;43.47
62710;BME280;48770;51.624;5.886;2023-06-22T06:04:39;101641.91;;;26.55;43.69
62710;BME280;48770;51.624;5.886;2023-06-22T06:07:05;101642.34;;;26.57;43.53
62710;BME280;48770;51.624;5.886;2023-06-22T06:09:30;101638.34;;;26.58;43.67
62710;BME280;48770;51.624;5.886;2023-06-22T06:11:56;101645.56;;;26.59;43.91
62710;BME280;48770;51.624;5.886;2023-06-22T06:14:21;101643.56;;;26.60;43.87
62710;BME280;48770;51.624;5.886;2023-06-22T06:16:48;101640.41;;;26.61;43.51
62710;BME280;48770;51.624;5.886;2023-06-22T06:19:14;101635.59;;;26.62;43.74
62710;BME280;48770;51.624;5.886;2023-06-22T06:21:39;101633.59;;;26.62;43.97
62710;BME280;48770;51.624;5.886;2023-06-22T06:24:04;101638.03;;;26.63;43.77
62710;BME280;48770;51.624;5.886;2023-06-22T06:26:30;101628.44;;;26.64;43.64
62710;BME280;48770;51.624;5.886;2023-06-22T06:28:59;101638.47;;;26.65;43.76
62710;BME280;48770;51.624;5.886;2023-06-22T06:31:25;101628.84;;;26.66;43.90
62710;BME280;48770;51.624;5.886;2023-06-22T06:33:52;101628.84;;;26.66;44.19
62710;BME280;48770;51.624;5.886;2023-06-22T06:36:19;101627.66;;;26.67;44.16
62710;BME280;48770;51.624;5.886;2023-06-22T06:38:44;101632.09;;;26.68;43.96
62710;BME280;48770;51.624;5.886;2023-06-22T06:41:09;101636.16;;;26.71;44.10
62710;BME280;48770;51.624;5.886;2023-06-22T06:43:35;101628.91;;;26.70;44.25
62710;BME280;48770;51.624;5.886;2023-06-22T06:46:00;101627.72;;;26.71;43.91
62710;BME280;48770;51.624;5.886;2023-06-22T06:48:25;101630.16;;;26.72;44.01
62710;BME280;48770;51.624;5.886;2023-06-22T06:50:51;101626.16;;;26.73;44.08
62710;BME280;48770;51.624;5.886;2023-06-22T06:53:16;101633.41;;;26.74;44.00
62710;BME280;48770;51.624;5.886;2023-06-22T06:55:41;101631.03;;;26.77;43.98
62710;BME280;48770;51.624;5.886;2023-06-22T06:58:07;101631.03;;;26.77;43.75
62710;BME280;48770;51.624;5.886;2023-06-22T07:00:33;101628.66;;;26.79;43.95
62710;BME280;48770;51.624;5.886;2023-06-22T07:02:59;101624.66;;;26.80;43.67
62710;BME280;48770;51.624;5.886;2023-06-22T07:05:24;101620.72;;;26.81;44.18
62710;BME280;48770;51.624;5.886;2023-06-22T07:07:49;101620.72;;;26.81;43.84
62710;BME280;48770;51.624;5.886;2023-06-22T07:10:15;101619.50;;;26.82;43.99
62710;BME280;48770;51.624;5.886;2023-06-22T07:12:40;101619.13;;;26.83;44.10
62710;BME280;48770;51.624;5.886;2023-06-22T07:15:13;101608.72;;;26.84;43.95
62710;BME280;48770;51.624;5.886;2023-06-22T07:17:39;101608.72;;;26.84;44.10
62710;BME280;48770;51.624;5.886;2023-06-22T07:20:06;101606.34;;;26.86;43.79
62710;BME280;48770;51.624;5.886;2023-06-22T07:22:35;101605.97;;;26.87;44.27
62710;BME280;48770;51.624;5.886;2023-06-22T07:25:01;101602.34;;;26.87;44.35
62710;BME280;48770;51.624;5.886;2023-06-22T07:27:26;101604.78;;;26.88;44.79
62710;BME280;48770;51.624;5.886;2023-06-22T07:29:52;101598.00;;;26.89;44.64
62710;BME280;48770;51.624;5.886;2023-06-22T07:32:17;101602.41;;;26.90;44.74
62710;BME280;48770;51.624;5.886;2023-06-22T07:34:42;101596.81;;;26.90;44.60
62710;BME280;48770;51.624;5.886;2023-06-22T07:37:09;101592.81;;;26.91;44.52
62710;BME280;48770;51.624;5.886;2023-06-22T07:39:34;101600.03;;;26.92;44.51
62710;BME280;48770;51.624;5.886;2023-06-22T07:41:59;101596.84;;;26.94;44.54
62710;BME280;48770;51.624;5.886;2023-06-22T07:44:25;101587.25;;;26.95;44.39
62710;BME280;48770;51.624;5.886;2023-06-22T07:46:50;101591.66;;;26.96;44.79
62710;BME280;48770;51.624;5.886;2023-06-22T07:49:17;101596.91;;;26.97;44.46
62710;BME280;48770;51.624;5.886;2023-06-22T07:51:42;101588.13;;;26.99;44.51
62710;BME280;48770;51.624;5.886;2023-06-22T07:54:09;101587.75;;;27.00;44.91
62710;BME280;48770;51.624;5.886;2023-06-22T07:56:36;101584.94;;;27.00;44.96
62710;BME280;48770;51.624;5.886;2023-06-22T07:59:02;101578.16;;;27.01;44.74
62710;BME280;48770;51.624;5.886;2023-06-22T08:01:29;101565.72;;;27.02;45.01
62710;BME280;48770;51.624;5.886;2023-06-22T08:03:54;101554.13;;;27.04;44.84
62710;BME280;48770;51.624;5.886;2023-06-22T08:06:19;101546.50;;;27.04;44.65
62710;BME280;48770;51.624;5.886;2023-06-22T08:08:45;101539.72;;;27.06;44.83
62710;BME280;48770;51.624;5.886;2023-06-22T08:11:13;101530.13;;;27.07;44.82
62710;BME280;48770;51.624;5.886;2023-06-22T08:13:38;101539.38;;;27.07;44.56
62710;BME280;48770;51.624;5.886;2023-06-22T08:16:04;101532.56;;;27.08;44.44
62710;BME280;48770;51.624;5.886;2023-06-22T08:18:29;101537.78;;;27.10;44.44
62710;BME280;48770;51.624;5.886;2023-06-22T08:20:54;101532.19;;;27.10;44.60
62710;BME280;48770;51.624;5.886;2023-06-22T08:23:19;101523.75;;;27.10;44.59
62710;BME280;48770;51.624;5.886;2023-06-22T08:25:45;101517.75;;;27.11;44.54
62710;BME280;48770;51.624;5.886;2023-06-22T08:28:10;101519.38;;;27.12;44.05
62710;BME280;48770;51.624;5.886;2023-06-22T08:30:35;101521.00;;;27.13;44.15
62710;BME280;48770;51.624;5.886;2023-06-22T08:33:01;101519.81;;;27.14;43.91
62710;BME280;48770;51.624;5.886;2023-06-22T08:35:26;101503.78;;;27.15;44.07
62710;BME280;48770;51.624;5.886;2023-06-22T08:37:51;101515.44;;;27.17;43.90
62710;BME280;48770;51.624;5.886;2023-06-22T08:40:19;101514.25;;;27.18;44.19
62710;BME280;48770;51.624;5.886;2023-06-22T08:42:45;101502.63;;;27.19;43.82
62710;BME280;48770;51.624;5.886;2023-06-22T08:45:12;101501.44;;;27.20;44.22
62710;BME280;48770;51.624;5.886;2023-06-22T08:47:38;101498.63;;;27.20;44.01
62710;BME280;48770;51.624;5.886;2023-06-22T08:50:04;101498.25;;;27.22;43.91
62710;BME280;48770;51.624;5.886;2023-06-22T08:52:29;101493.44;;;27.22;43.78
62710;BME280;48770;51.624;5.886;2023-06-22T08:54:55;101495.06;;;27.23;43.81
62710;BME280;48770;51.624;5.886;2023-06-22T08:57:21;101497.88;;;27.23;43.58
62710;BME280;48770;51.624;5.886;2023-06-22T08:59:46;101501.09;;;27.25;43.69
62710;BME280;48770;51.624;5.886;2023-06-22T09:02:12;101501.91;;;27.26;43.68
62710;BME280;48770;51.624;5.886;2023-06-22T09:04:37;101495.88;;;27.24;43.79
62710;BME280;48770;51.624;5.886;2023-06-22T09:07:03;101496.28;;;27.26;43.65
62710;BME280;48770;51.624;5.886;2023-06-22T09:09:28;101487.88;;;27.26;43.34
62710;BME280;48770;51.624;5.886;2023-06-22T09:11:54;101494.28;;;27.26;43.48
62710;BME280;48770;51.624;5.886;2023-06-22T09:14:19;101495.91;;;27.27;43.78
62710;BME280;48770;51.624;5.886;2023-06-22T09:16:44;101486.66;;;27.27;43.73
62710;BME280;48770;51.624;5.886;2023-06-22T09:19:10;101483.47;;;27.28;43.51
62710;BME280;48770;51.624;5.886;2023-06-22T09:21:35;101483.88;;;27.27;43.42
62710;BME280;48770;51.624;5.886;2023-06-22T09:24:01;101481.47;;;27.29;43.27
62710;BME280;48770;51.624;5.886;2023-06-22T09:26:26;101480.66;;;27.28;43.57
62710;BME280;48770;51.624;5.886;2023-06-22T09:28:52;101471.44;;;27.28;43.35
62710;BME280;48770;51.624;5.886;2023-06-22T09:31:17;101471.44;;;27.28;43.34
62710;BME280;48770;51.624;5.886;2023-06-22T09:33:53;101468.22;;;27.26;43.25
62710;BME280;48770;51.624;5.886;2023-06-22T09:36:21;101481.88;;;27.27;43.60
62710;BME280;48770;51.624;5.886;2023-06-22T09:38:47;101479.06;;;27.27;43.21
62710;BME280;48770;51.624;5.886;2023-06-22T09:41:13;101485.88;;;27.26;43.26
62710;BME280;48770;51.624;5.886;2023-06-22T09:43:38;101478.63;;;27.25;43.12
62710;BME280;48770;51.624;5.886;2023-06-22T09:46:03;101485.88;;;27.26;42.85
62710;BME280;48770;51.624;5.886;2023-06-22T09:48:29;101481.88;;;27.27;42.98
62710;BME280;48770;51.624;5.886;2023-06-22T09:50:57;101476.25;;;27.27;42.84
62710;BME280;48770;51.624;5.886;2023-06-22T09:53:22;101471.00;;;27.26;42.80
62710;BME280;48770;51.624;5.886;2023-06-22T09:55:48;101477.06;;;27.28;42.99
62710;BME280;48770;51.624;5.886;2023-06-22T09:58:13;101470.63;;;27.27;42.51
62710;BME280;48770;51.624;5.886;2023-06-22T10:00:38;101475.06;;;27.28;42.90
62710;BME280;48770;51.624;5.886;2023-06-22T10:03:04;101467.44;;;27.29;43.06
62710;BME280;48770;51.624;5.886;2023-06-22T10:05:29;101473.88;;;27.29;42.95
62710;BME280;48770;51.624;5.886;2023-06-22T10:07:54;101465.44;;;27.29;42.85
62710;BME280;48770;51.624;5.886;2023-06-22T10:10:19;101479.47;;;27.29;43.18
62710;BME280;48770;51.624;5.886;2023-06-22T10:12:47;101467.06;;;27.30;43.45
62710;BME280;48770;51.624;5.886;2023-06-22T10:15:13;101475.47;;;27.30;43.22
62710;BME280;48770;51.624;5.886;2023-06-22T10:17:39;101477.09;;;27.31;43.33
62710;BME280;48770;51.624;5.886;2023-06-22T10:20:06;101465.88;;;27.31;43.02
62710;BME280;48770;51.624;5.886;2023-06-22T10:22:41;101464.25;;;27.30;43.07
62710;BME280;48770;51.624;5.886;2023-06-22T10:25:07;101463.06;;;27.31;43.83
62710;BME280;48770;51.624;5.886;2023-06-22T10:27:32;101463.88;;;27.32;43.69
62710;BME280;48770;51.624;5.886;2023-06-22T10:29:58;101462.25;;;27.31;43.77
62710;BME280;48770;51.624;5.886;2023-06-22T10:32:23;101456.63;;;27.31;43.15
62710;BME280;48770;51.624;5.886;2023-06-22T10:34:48;101449.41;;;27.30;43.59
62710;BME280;48770;51.624;5.886;2023-06-22T10:37:14;101449.41;;;27.30;43.66
62710;BME280;48770;51.624;5.886;2023-06-22T10:39:39;101454.59;;;27.28;43.61
62710;BME280;48770;51.624;5.886;2023-06-22T10:42:05;101455.41;;;27.28;43.55
62710;BME280;48770;51.624;5.886;2023-06-22T10:44:30;101458.22;;;27.28;43.40
62710;BME280;48770;51.624;5.886;2023-06-22T10:46:56;101454.59;;;27.28;43.21
62710;BME280;48770;51.624;5.886;2023-06-22T10:49:21;101458.59;;;27.27;43.06
62710;BME280;48770;51.624;5.886;2023-06-22T10:51:46;101464.22;;;27.27;43.35
62710;BME280;48770;51.624;5.886;2023-06-22T10:54:12;101461.41;;;27.27;42.93
62710;BME280;48770;51.624;5.886;2023-06-22T10:56:39;101478.66;;;27.29;42.84
62710;BME280;48770;51.624;5.886;2023-06-22T10:59:04;101486.66;;;27.27;43.00
62710;BME280;48770;51.624;5.886;2023-06-22T11:01:30;101493.47;;;27.26;43.06
62710;BME280;48770;51.624;5.886;2023-06-22T11:03:56;101506.31;;;27.27;43.24
62710;BME280;48770;51.624;5.886;2023-06-22T11:06:22;101515.56;;;27.27;43.77
62710;BME280;48770;51.624;5.886;2023-06-22T11:08:47;101524.75;;;27.24;44.09
62710;BME280;48770;51.624;5.886;2023-06-22T11:11:12;101527.56;;;27.24;44.95
62710;BME280;48770;51.624;5.886;2023-06-22T11:13:37;101523.94;;;27.24;45.22
62710;BME280;48770;51.624;5.886;2023-06-22T11:16:03;101503.47;;;27.23;45.13
62710;BME280;48770;51.624;5.886;2023-06-22T11:18:28;101504.28;;;27.24;45.39
62710;BME280;48770;51.624;5.886;2023-06-22T11:20:54;101499.84;;;27.23;45.33
62710;BME280;48770;51.624;5.886;2023-06-22T11:23:19;101504.66;;;27.22;45.44
62710;BME280;48770;51.624;5.886;2023-06-22T11:25:44;101506.66;;;27.22;45.89
62710;BME280;48770;51.624;5.886;2023-06-22T11:28:11;101499.44;;;27.21;46.34
62710;BME280;48770;51.624;5.886;2023-06-22T11:30:36;101494.19;;;27.19;46.16
62710;BME280;48770;51.624;5.886;2023-06-22T11:33:02;101515.84;;;27.19;46.52
62710;BME280;48770;51.624;5.886;2023-06-22T11:35:27;101521.09;;;27.20;46.67
62710;BME280;48770;51.624;5.886;2023-06-22T11:37:52;101518.66;;;27.19;47.20
62710;BME280;48770;51.624;5.886;2023-06-22T11:40:18;101494.59;;;27.18;47.08
62710;BME280;48770;51.624;5.886;2023-06-22T11:42:43;101491.78;;;27.18;47.05
62710;BME280;48770;51.624;5.886;2023-06-22T11:45:09;101505.00;;;27.17;47.26
62710;BME280;48770;51.624;5.886;2023-06-22T11:47:35;101510.63;;;27.17;47.63
62710;BME280;48770;51.624;5.886;2023-06-22T11:50:01;101496.16;;;27.15;47.54
62710;BME280;48770;51.624;5.886;2023-06-22T11:52:26;101492.53;;;27.15;47.88
62710;BME280;48770;51.624;5.886;2023-06-22T11:54:52;101483.69;;;27.13;47.60
62710;BME280;48770;51.624;5.886;2023-06-22T11:57:17;101471.66;;;27.12;48.04
62710;BME280;48770;51.624;5.886;2023-06-22T11:59:43;101465.22;;;27.12;47.76
62710;BME280;48770;51.624;5.886;2023-06-22T12:02:08;101445.97;;;27.10;47.78
62710;BME280;48770;51.624;5.886;2023-06-22T12:04:34;101443.97;;;27.11;48.03
62710;BME280;48770;51.624;5.886;2023-06-22T12:07:00;101427.09;;;27.07;48.00
62710;BME280;48770;51.624;5.886;2023-06-22T12:09:25;101417.47;;;27.08;48.17
62710;BME280;48770;51.624;5.886;2023-06-22T12:11:50;101392.59;;;27.07;47.92
62710;BME280;48770;51.624;5.886;2023-06-22T12:14:16;101384.16;;;27.07;48.13
62710;BME280;48770;51.624;5.886;2023-06-22T12:16:41;101388.53;;;27.04;47.89
62710;BME280;48770;51.624;5.886;2023-06-22T12:19:07;101415.41;;;27.05;48.13
62710;BME280;48770;51.624;5.886;2023-06-22T12:21:33;101421.78;;;27.02;48.31
62710;BME280;48770;51.624;5.886;2023-06-22T12:23:58;101418.97;;;27.02;48.27
62710;BME280;48770;51.624;5.886;2023-06-22T12:26:23;101415.34;;;27.01;48.09
62710;BME280;48770;51.624;5.886;2023-06-22T12:28:49;101406.13;;;27.01;48.10
62710;BME280;48770;51.624;5.886;2023-06-22T12:31:14;101405.69;;;26.99;48.47
62710;BME280;48770;51.624;5.886;2023-06-22T12:33:40;101400.91;;;26.99;48.22
62710;BME280;48770;51.624;5.886;2023-06-22T12:36:05;101402.91;;;26.99;48.55
62710;BME280;48770;51.624;5.886;2023-06-22T12:38:30;101410.47;;;26.98;48.49
62710;BME280;48770;51.624;5.886;2023-06-22T12:40:55;101414.13;;;26.99;48.14
62710;BME280;48770;51.624;5.886;2023-06-22T12:43:21;101408.50;;;26.99;48.59
62710;BME280;48770;51.624;5.886;2023-06-22T12:45:46;101398.44;;;26.98;47.99
62710;BME280;48770;51.624;5.886;2023-06-22T12:48:11;101390.03;;;26.98;48.66
62710;BME280;48770;51.624;5.886;2023-06-22T12:50:38;101379.59;;;26.98;48.48